Time;durP1;ratioP1;P1;durP2;ratioP2;P2;SDS_P1;SDS_P2;PMS_P1;PMS_P2;Temp;Humidity;BMP_temperature;BMP_pressure;BME280_temperature;BME280_humidity;BME280_pressure;Samples;Min_cycle;Max_cycle;Signal;HPM_P1;HPM_P2
2020/12/02 00:00:12;;;;;;;8.43;4.70;;;16.60;63.70;;;;;;5050462;28;20077;-71
2020/12/02 00:02:59;;;;;;;7.22;4.10;;;16.50;63.60;;;;;;5049283;28;20123;-69
2020/12/02 00:05:26;;;;;;;7.35;4.28;;;16.50;63.70;;;;;;5050436;28;20490;-69
2020/12/02 00:08:20;;;;;;;8.60;4.30;;;16.50;63.70;;;;;;5048118;28;20405;-69
2020/12/02 00:10:46;;;;;;;9.40;4.40;;;16.50;63.80;;;;;;5040221;28;20036;-69
2020/12/02 00:13:15;;;;;;;7.38;3.85;;;16.40;63.80;;;;;;5050102;28;20021;-69
2020/12/02 00:15:41;;;;;;;7.35;3.63;;;16.40;63.70;;;;;;5050018;28;20687;-70
2020/12/02 00:18:06;;;;;;;10.43;4.57;;;16.50;64.00;;;;;;5048283;28;20029;-69
2020/12/02 00:20:32;;;;;;;8.05;4.25;;;16.50;64.00;;;;;;5049510;28;20029;-69
2020/12/02 00:22:58;;;;;;;11.07;3.70;;;16.40;63.80;;;;;;5049968;28;20021;-70
2020/12/02 00:25:23;;;;;;;7.35;4.10;;;16.40;64.00;;;;;;5050100;28;20035;-69
2020/12/02 00:27:49;;;;;;;7.00;4.03;;;16.40;63.90;;;;;;5049887;28;20417;-69
2020/12/02 00:30:17;;;;;;;7.30;4.25;;;16.40;63.90;;;;;;5049894;28;20033;-69
2020/12/02 00:32:45;;;;;;;7.13;3.78;;;16.40;63.90;;;;;;5049452;28;20382;-70
2020/12/02 00:35:15;;;;;;;8.20;3.80;;;16.40;63.90;;;;;;5049852;28;20490;-69
2020/12/02 00:37:41;;;;;;;8.93;3.78;;;16.40;63.90;;;;;;5052308;28;20486;-69
2020/12/02 00:40:08;;;;;;;6.95;3.80;;;16.40;64.00;;;;;;5053992;28;20032;-69
2020/12/02 00:42:34;;;;;;;6.30;3.53;;;16.30;63.80;;;;;;5052641;28;20036;-69
2020/12/02 00:44:59;;;;;;;7.50;4.07;;;16.40;64.00;;;;;;5052205;28;20029;-69
2020/12/02 00:47:25;;;;;;;7.80;3.92;;;16.40;63.90;;;;;;5052844;28;20090;-69
2020/12/02 00:49:54;;;;;;;8.23;3.97;;;16.30;63.70;;;;;;5052296;28;20025;-69
2020/12/02 00:52:20;;;;;;;6.78;3.78;;;16.30;63.90;;;;;;5053153;28;20468;-69
2020/12/02 00:54:46;;;;;;;8.27;3.95;;;16.30;63.90;;;;;;5052433;28;20029;-70
2020/12/02 00:57:19;;;;;;;7.88;4.03;;;16.30;63.90;;;;;;5052312;28;20040;-69
2020/12/02 00:59:52;;;;;;;8.63;4.03;;;16.20;63.90;;;;;;5053549;28;20115;-70
2020/12/02 01:02:36;;;;;;;6.78;4.05;;;16.20;63.90;;;;;;5052117;28;20025;-70
2020/12/02 01:05:09;;;;;;;8.23;4.15;;;16.20;63.90;;;;;;5052999;28;20025;-70
2020/12/02 01:07:39;;;;;;;7.78;4.03;;;16.20;63.90;;;;;;5051887;28;20063;-70
2020/12/02 01:10:05;;;;;;;8.85;3.78;;;16.20;64.50;;;;;;5053373;28;20105;-70
2020/12/02 01:12:30;;;;;;;7.10;3.78;;;16.20;64.10;;;;;;5053107;28;20543;-71
2020/12/02 01:14:56;;;;;;;6.43;3.60;;;16.20;63.60;;;;;;5052305;28;20033;-69
2020/12/02 01:17:21;;;;;;;8.63;3.78;;;16.20;63.80;;;;;;5052331;28;20021;-70
2020/12/02 01:19:47;;;;;;;7.30;3.80;;;16.20;63.60;;;;;;5052427;28;20036;-70
2020/12/02 01:22:32;;;;;;;7.32;3.55;;;16.20;63.70;;;;;;5052429;28;20501;-70
2020/12/02 01:25:11;;;;;;;7.65;3.80;;;16.20;63.40;;;;;;5051528;28;20113;-70
2020/12/02 01:27:51;;;;;;;6.65;3.63;;;16.20;63.40;;;;;;5042055;22;20041;-68
2020/12/02 01:30:18;;;;;;;7.82;4.07;;;16.10;63.60;;;;;;4996515;28;20033;-71
2020/12/02 01:32:45;;;;;;;7.90;4.15;;;16.10;64.00;;;;;;5010936;28;20458;-69
2020/12/02 01:35:14;;;;;;;8.82;3.42;;;16.10;64.00;;;;;;5008180;28;20068;-68
2020/12/02 01:37:41;;;;;;;7.07;3.78;;;16.10;64.20;;;;;;5029316;28;20044;-68
2020/12/02 01:40:23;;;;;;;8.18;3.88;;;16.10;64.10;;;;;;5027916;28;20048;-70
2020/12/02 01:42:50;;;;;;;;;;;16.10;64.10;;;;;;5011667;28;20026;-68
2020/12/02 01:45:48;;;;;;;8.82;3.90;;;16.10;64.10;;;;;;5017691;28;19916;-68
2020/12/02 01:48:35;;;;;;;8.80;3.85;;;16.10;64.20;;;;;;5025031;28;20042;-70
2020/12/02 01:51:27;;;;;;;7.28;3.42;;;16.10;64.20;;;;;;5012449;28;20026;-70
2020/12/02 01:54:07;;;;;;;7.93;3.70;;;16.00;64.10;;;;;;5021349;28;20516;-70
2020/12/02 01:56:32;;;;;;;7.75;3.97;;;16.00;64.00;;;;;;5032241;28;20072;-70
2020/12/02 01:59:09;;;;;;;7.20;3.63;;;16.00;64.10;;;;;;5032564;28;20374;-71
2020/12/02 02:02:02;;;;;;;6.18;3.58;;;16.00;64.10;;;;;;5030544;28;20033;-69
2020/12/02 02:04:54;;;;;;;8.07;3.65;;;16.00;63.90;;;;;;5031967;28;20498;-71
2020/12/02 02:07:24;;;;;;;6.65;3.55;;;16.00;63.90;;;;;;5031003;28;20037;-71
2020/12/02 02:09:54;;;;;;;6.70;3.85;;;16.00;64.00;;;;;;5031747;28;20038;-71
2020/12/02 02:12:57;;;;;;;7.60;3.97;;;16.00;64.00;;;;;;5031673;28;20116;-71
2020/12/02 02:15:47;;;;;;;7.03;3.75;;;16.00;63.80;;;;;;5031860;28;20029;-68
2020/12/02 02:18:22;;;;;;;8.23;4.05;;;16.00;64.00;;;;;;5030832;28;20551;-68
2020/12/02 02:21:10;;;;;;;7.13;3.85;;;16.00;64.00;;;;;;5030638;28;20144;-68
2020/12/02 02:23:36;;;;;;;7.95;3.85;;;15.90;63.90;;;;;;5012458;28;20030;-68
2020/12/02 02:26:13;;;;;;;7.50;3.55;;;15.90;63.90;;;;;;5021465;28;20104;-70
2020/12/02 02:28:49;;;;;;;7.30;3.72;;;15.90;63.70;;;;;;5031835;28;20519;-71
2020/12/02 02:31:18;;;;;;;7.63;3.75;;;15.90;63.70;;;;;;5023822;28;20048;-68
2020/12/02 02:33:48;;;;;;;7.72;3.85;;;15.90;64.00;;;;;;5031770;28;20029;-71
2020/12/02 02:36:16;;;;;;;8.18;4.15;;;15.90;64.00;;;;;;5031165;28;20040;-69
2020/12/02 02:38:42;;;;;;;6.45;3.58;;;15.90;64.20;;;;;;5031296;28;20034;-71
2020/12/02 02:41:09;;;;;;;8.32;3.70;;;15.90;64.00;;;;;;5029660;28;20021;-68
2020/12/02 02:43:36;;;;;;;7.88;4.18;;;15.90;63.90;;;;;;5031092;28;20538;-71
2020/12/02 02:46:02;;;;;;;6.78;3.80;;;15.90;63.90;;;;;;5029885;28;20053;-68
2020/12/02 02:48:27;;;;;;;6.75;3.85;;;15.90;64.10;;;;;;5031346;28;20593;-70
2020/12/02 02:50:53;;;;;;;7.07;3.90;;;15.90;64.30;;;;;;5029309;28;20071;-71
2020/12/02 02:53:21;;;;;;;7.32;3.90;;;15.90;64.20;;;;;;5031541;28;20037;-71
2020/12/02 02:55:48;;;;;;;7.50;4.25;;;15.80;64.20;;;;;;5030821;28;20517;-68
2020/12/02 02:58:14;;;;;;;7.07;4.03;;;15.90;63.90;;;;;;5030040;28;20117;-71
2020/12/02 03:00:41;;;;;;;6.97;4.25;;;15.90;63.90;;;;;;5029778;28;20021;-68
2020/12/02 03:03:12;;;;;;;8.82;4.95;;;15.80;63.90;;;;;;5030793;28;20220;-68
2020/12/02 03:05:38;;;;;;;7.83;4.23;;;15.80;63.90;;;;;;5029488;28;20017;-68
2020/12/02 03:08:07;;;;;;;7.53;4.13;;;15.80;64.00;;;;;;5030433;28;20033;-68
2020/12/02 03:10:35;;;;;;;8.57;4.00;;;15.80;63.70;;;;;;5030520;28;20056;-70
2020/12/02 03:13:14;;;;;;;7.43;3.78;;;15.90;63.80;;;;;;5029249;28;20459;-70
2020/12/02 03:15:40;;;;;;;7.25;3.95;;;15.90;63.90;;;;;;5029500;28;20580;-71
2020/12/02 03:18:07;;;;;;;8.57;4.68;;;15.90;63.90;;;;;;5030564;28;20072;-71
2020/12/02 03:20:37;;;;;;;7.25;4.00;;;15.80;64.00;;;;;;5030340;28;20073;-67
2020/12/02 03:23:02;;;;;;;8.02;4.35;;;15.80;63.70;;;;;;5030565;28;20018;-68
2020/12/02 03:25:32;;;;;;;7.63;4.20;;;15.90;63.90;;;;;;5026437;28;20028;-71
2020/12/02 03:27:58;;;;;;;8.90;5.10;;;15.80;63.70;;;;;;5029980;28;20029;-71
2020/12/02 03:30:24;;;;;;;7.93;4.78;;;15.80;63.20;;;;;;5029328;28;20103;-69
2020/12/02 03:32:50;;;;;;;8.15;4.47;;;15.80;63.10;;;;;;5028836;28;20029;-70
2020/12/02 03:35:16;;;;;;;8.48;4.43;;;15.80;63.70;;;;;;5030435;28;20075;-70
2020/12/02 03:37:41;;;;;;;9.02;4.25;;;15.80;64.00;;;;;;5029757;28;20038;-68
2020/12/02 03:40:09;;;;;;;8.57;4.55;;;15.80;63.80;;;;;;5030391;28;20033;-71
2020/12/02 03:42:35;;;;;;;9.02;4.45;;;15.70;63.70;;;;;;5029435;28;20406;-68
2020/12/02 03:45:02;;;;;;;8.30;4.55;;;15.80;63.80;;;;;;5030639;28;20021;-69
2020/12/02 03:47:28;;;;;;;8.65;4.20;;;15.70;63.80;;;;;;5029988;28;20033;-68
2020/12/02 03:49:53;;;;;;;6.65;4.13;;;15.80;64.10;;;;;;5030356;28;20441;-68
2020/12/02 03:52:19;;;;;;;7.63;4.47;;;15.80;63.90;;;;;;5029886;28;20044;-68
2020/12/02 03:54:44;;;;;;;8.00;4.25;;;15.80;63.90;;;;;;5030508;28;20072;-71
2020/12/02 03:57:10;;;;;;;8.35;4.70;;;15.70;63.80;;;;;;5028425;28;20506;-69
2020/12/02 03:59:35;;;;;;;8.50;4.68;;;15.70;63.90;;;;;;5028761;28;20040;-71
2020/12/02 04:02:01;;;;;;;8.07;4.88;;;15.70;63.80;;;;;;5027507;28;20022;-71
2020/12/02 04:04:26;;;;;;;7.78;4.68;;;15.70;63.70;;;;;;5030408;28;20036;-68
2020/12/02 04:06:52;;;;;;;8.18;4.70;;;15.70;63.80;;;;;;5029645;28;20025;-71
2020/12/02 04:09:17;;;;;;;9.10;5.07;;;15.70;63.60;;;;;;5030186;28;20025;-71
2020/12/02 04:11:43;;;;;;;9.18;4.90;;;15.70;63.50;;;;;;5029128;28;20030;-70
2020/12/02 04:14:09;;;;;;;9.15;4.93;;;15.70;63.60;;;;;;5029008;28;20041;-71
2020/12/02 04:16:35;;;;;;;10.13;4.40;;;15.70;63.50;;;;;;5028356;28;20041;-68
2020/12/02 04:19:00;;;;;;;8.20;4.40;;;15.60;63.50;;;;;;5030111;28;20511;-70
2020/12/02 04:21:26;;;;;;;8.65;4.78;;;15.70;63.70;;;;;;5029294;28;20478;-70
2020/12/02 04:23:53;;;;;;;9.05;4.78;;;15.60;63.50;;;;;;5030356;28;20075;-68
2020/12/02 04:26:19;;;;;;;10.10;5.45;;;15.60;63.50;;;;;;5029513;28;20041;-71
2020/12/02 04:28:45;;;;;;;10.10;5.20;;;15.60;63.70;;;;;;5029878;28;20425;-69
2020/12/02 04:31:10;;;;;;;8.25;5.00;;;15.60;63.70;;;;;;5029504;28;20033;-71
2020/12/02 04:33:36;;;;;;;8.68;4.95;;;15.60;63.60;;;;;;5029979;28;20033;-71
2020/12/02 04:36:02;;;;;;;9.18;5.05;;;15.60;63.50;;;;;;5028275;28;20053;-70
2020/12/02 04:38:28;;;;;;;8.90;5.25;;;15.60;63.80;;;;;;5030077;28;20033;-70
2020/12/02 04:40:53;;;;;;;8.90;5.35;;;15.60;63.60;;;;;;5029413;28;20030;-70
2020/12/02 04:43:38;;;;;;;9.77;5.80;;;15.60;63.40;;;;;;5027644;28;20029;-73
2020/12/02 04:46:36;;;;;;;9.63;5.43;;;15.50;63.50;;;;;;5028337;28;20032;-70
2020/12/02 04:49:18;;;;;;;11.77;6.15;;;15.50;63.40;;;;;;5017580;28;20087;-70
2020/12/02 04:51:45;;;;;;;10.48;6.00;;;15.50;63.50;;;;;;5028195;28;20025;-70
2020/12/02 04:54:12;;;;;;;9.98;5.78;;;15.50;63.50;;;;;;5028511;28;20028;-70
2020/12/02 04:56:43;;;;;;;10.55;5.60;;;15.50;63.30;;;;;;5028927;28;20433;-70
2020/12/02 04:59:09;;;;;;;9.37;6.00;;;15.50;63.60;;;;;;5029188;28;20025;-70
2020/12/02 05:01:45;;;;;;;10.40;6.45;;;15.50;63.60;;;;;;5027214;28;20030;-70
2020/12/02 05:04:20;;;;;;;13.10;6.18;;;15.50;63.50;;;;;;5029514;28;20056;-69
2020/12/02 05:06:49;;;;;;;13.20;6.60;;;15.50;63.90;;;;;;5026591;28;20025;-68
2020/12/02 05:09:24;;;;;;;10.57;6.20;;;15.60;63.80;;;;;;5011000;28;20120;-71
2020/12/02 05:11:56;;;;;;;10.65;6.43;;;15.60;62.90;;;;;;5029007;28;20026;-69
2020/12/02 05:14:22;;;;;;;13.45;6.72;;;15.70;63.70;;;;;;5027774;28;20037;-70
2020/12/02 05:17:15;;;;;;;14.77;6.50;;;15.70;62.40;;;;;;5028740;28;20037;-70
2020/12/02 05:19:41;;;;;;;12.13;5.93;;;15.70;62.30;;;;;;5021111;28;20071;-70
2020/12/02 05:22:15;;;;;;;11.75;6.63;;;15.70;62.10;;;;;;5021941;28;20033;-70
2020/12/02 05:24:49;;;;;;;21.08;11.13;;;15.70;62.90;;;;;;5021927;28;20841;-70
2020/12/02 05:27:18;;;;;;;16.25;7.20;;;15.70;62.80;;;;;;5026027;28;20501;-70
2020/12/02 05:29:55;;;;;;;11.63;6.68;;;15.70;63.20;;;;;;5023977;28;20087;-70
2020/12/02 05:32:26;;;;;;;13.73;6.97;;;15.80;63.20;;;;;;5022407;28;20505;-70
2020/12/02 05:34:52;;;;;;;14.75;7.30;;;15.90;63.30;;;;;;5025280;28;20312;-71
2020/12/02 05:37:40;;;;;;;22.67;8.27;;;15.90;63.10;;;;;;5023603;28;20049;-70
2020/12/02 05:40:11;;;;;;;13.48;7.28;;;16.00;63.10;;;;;;5013240;28;20040;-70
2020/12/02 05:42:42;;;;;;;12.80;7.15;;;16.10;63.00;;;;;;5025726;28;20030;-70
2020/12/02 05:45:13;;;;;;;21.38;7.88;;;16.10;62.80;;;;;;5023444;28;20029;-67
2020/12/02 05:47:40;;;;;;;;;;;16.20;62.60;;;;;;5025205;28;20029;-70
2020/12/02 05:50:13;;;;;;;18.95;7.57;;;16.20;62.60;;;;;;5024214;28;20406;-69
2020/12/02 05:52:40;;;;;;;16.63;7.30;;;16.30;62.30;;;;;;5024431;28;20033;-69
2020/12/02 05:55:09;;;;;;;18.52;7.25;;;16.30;62.10;;;;;;5024785;28;20035;-72
2020/12/02 05:57:41;;;;;;;17.17;7.32;;;16.40;62.40;;;;;;5024519;28;20037;-71
2020/12/02 06:00:09;;;;;;;22.40;10.25;;;16.50;62.40;;;;;;5025502;28;20167;-69
2020/12/02 06:02:37;;;;;;;28.98;12.20;;;16.50;60.80;;;;;;5025362;28;20025;-70
2020/12/02 06:05:10;;;;;;;21.58;10.27;;;16.50;59.50;;;;;;5026529;28;20022;-70
2020/12/02 06:07:48;;;;;;;20.98;9.75;;;16.50;60.30;;;;;;5026434;28;20561;-72
2020/12/02 06:10:16;;;;;;;21.92;9.13;;;16.60;61.50;;;;;;5025209;28;20033;-70
2020/12/02 06:12:43;;;;;;;17.48;9.38;;;16.70;61.60;;;;;;5019201;28;20037;-68
2020/12/02 06:15:20;;;;;;;18.40;8.88;;;16.80;61.70;;;;;;5014953;28;20025;-69
2020/12/02 06:17:46;;;;;;;17.17;8.77;;;16.80;61.70;;;;;;5014587;28;20057;-69
2020/12/02 06:20:12;;;;;;;18.13;8.35;;;16.80;61.50;;;;;;5014946;28;20350;-69
2020/12/02 06:22:53;;;;;;;15.90;8.07;;;16.80;61.60;;;;;;5015056;28;20032;-70
2020/12/02 06:25:46;;;;;;;15.27;7.93;;;16.90;61.50;;;;;;5017461;28;20028;-69
2020/12/02 06:28:13;;;;;;;16.83;8.77;;;16.90;61.50;;;;;;5016543;28;20041;-69
2020/12/02 06:30:39;;;;;;;15.60;8.27;;;16.90;61.50;;;;;;5013306;28;20479;-70
2020/12/02 06:33:21;;;;;;;16.35;8.52;;;17.00;61.60;;;;;;5024474;28;20025;-69
2020/12/02 06:35:50;;;;;;;17.30;8.35;;;17.00;61.30;;;;;;5040410;28;20068;-69
2020/12/02 06:38:28;;;;;;;17.83;8.07;;;17.00;61.10;;;;;;5023370;28;20082;-68
2020/12/02 06:41:02;;;;;;;16.70;8.57;;;17.00;61.00;;;;;;5014100;28;20064;-69
2020/12/02 06:43:33;;;;;;;16.17;8.15;;;17.00;60.90;;;;;;5016936;28;21396;-69
2020/12/02 06:46:11;;;;;;;17.60;7.75;;;17.00;61.30;;;;;;5015980;28;20112;-69
2020/12/02 06:48:39;;;;;;;13.13;8.25;;;16.90;61.30;;;;;;5017181;28;20036;-70
2020/12/02 06:51:14;;;;;;;16.10;8.38;;;16.90;61.50;;;;;;5022935;28;20037;-69
2020/12/02 06:53:40;;;;;;;15.75;8.25;;;16.90;61.90;;;;;;5022905;28;20064;-69
2020/12/02 06:56:06;;;;;;;14.38;8.32;;;16.90;61.90;;;;;;5010815;28;20054;-70
2020/12/02 06:58:32;;;;;;;13.50;7.95;;;16.90;62.10;;;;;;5005625;28;20525;-69
2020/12/02 07:01:04;;;;;;;13.73;8.63;;;16.90;62.10;;;;;;5009216;28;20549;-70
2020/12/02 07:03:29;;;;;;;14.98;8.65;;;16.90;62.20;;;;;;5019664;28;20554;-69
2020/12/02 07:06:34;;;;;;;12.70;8.32;;;16.90;62.40;;;;;;5007337;28;20032;-69
2020/12/02 07:09:15;;;;;;;12.70;7.90;;;16.90;62.80;;;;;;4921394;29;20430;-70
2020/12/02 07:11:59;;;;;;;13.32;8.60;;;16.90;62.70;;;;;;4921350;29;20480;-70
2020/12/02 07:14:38;;;;;;;12.45;8.45;;;16.90;63.00;;;;;;4982350;28;20455;-70
2020/12/02 07:17:09;;;;;;;14.95;9.00;;;16.80;63.00;;;;;;5017859;28;20013;-69
2020/12/02 07:19:45;;;;;;;15.13;8.90;;;16.80;62.60;;;;;;5013622;28;20037;-69
2020/12/02 07:22:12;;;;;;;14.15;8.68;;;16.90;62.80;;;;;;5018308;28;20017;-69
2020/12/02 07:24:45;;;;;;;15.43;8.63;;;16.80;63.00;;;;;;5018856;28;20037;-70
2020/12/02 07:27:13;;;;;;;12.98;7.80;;;16.80;63.00;;;;;;5014658;28;20034;-69
2020/12/02 07:29:39;;;;;;;12.93;8.52;;;16.80;62.90;;;;;;5008222;28;20038;-70
2020/12/02 07:32:14;;;;;;;14.30;8.80;;;16.70;63.30;;;;;;5013435;28;20291;-72
2020/12/02 07:34:41;;;;;;;13.18;8.30;;;16.70;63.20;;;;;;5015432;28;20045;-70
2020/12/02 07:37:16;;;;;;;42.35;9.82;;;16.70;63.60;;;;;;5024395;28;20037;-69
2020/12/02 07:39:47;;;;;;;18.02;8.75;;;16.70;63.60;;;;;;5021526;28;20029;-66
2020/12/02 07:42:26;;;;;;;25.75;16.67;;;16.70;63.90;;;;;;5015575;28;20029;-69
2020/12/02 07:45:03;;;;;;;30.88;21.98;;;16.80;63.50;;;;;;5012141;28;20030;-69
2020/12/02 07:47:30;;;;;;;24.33;17.02;;;16.80;63.50;;;;;;5017330;28;20084;-68
2020/12/02 07:50:04;;;;;;;20.83;12.82;;;16.80;63.80;;;;;;5007697;28;20044;-68
2020/12/02 07:52:37;;;;;;;21.05;12.68;;;16.90;65.40;;;;;;5015073;28;20044;-68
2020/12/02 07:55:06;;;;;;;21.58;13.85;;;17.00;65.20;;;;;;5017973;28;20036;-68
2020/12/02 07:57:34;;;;;;;18.45;12.98;;;17.10;64.70;;;;;;5023576;28;20029;-68
2020/12/02 08:00:32;;;;;;;18.55;12.07;;;17.20;63.00;;;;;;5022705;28;20033;-69
2020/12/02 08:02:57;;;;;;;20.58;13.13;;;17.30;62.60;;;;;;5016766;28;20029;-68
2020/12/02 08:05:52;;;;;;;17.70;11.85;;;17.40;62.30;;;;;;5022977;28;20386;-68
2020/12/02 08:08:18;;;;;;;18.45;11.80;;;17.40;61.80;;;;;;5021482;28;20040;-69
2020/12/02 08:10:43;;;;;;;24.55;13.80;;;17.50;62.00;;;;;;5022048;28;20029;-70
2020/12/02 08:13:19;;;;;;;27.25;15.10;;;17.50;59.40;;;;;;5017550;28;20406;-69
2020/12/02 08:15:57;;;;;;;25.13;13.25;;;17.50;59.30;;;;;;5018162;28;20026;-71
2020/12/02 08:18:28;;;;;;;24.38;12.55;;;17.50;60.70;;;;;;5002908;28;20502;-72
2020/12/02 08:21:11;;;;;;;20.77;12.60;;;17.60;60.30;;;;;;5004694;28;20294;-68
2020/12/02 08:23:37;;;;;;;21.75;12.15;;;17.70;60.00;;;;;;5011959;28;20289;-68
2020/12/02 08:26:17;;;;;;;23.40;11.40;;;17.80;59.70;;;;;;5012040;28;20025;-69
2020/12/02 08:28:44;;;;;;;21.90;11.18;;;17.80;59.60;;;;;;5024053;28;20026;-70
2020/12/02 08:31:16;;;;;;;24.25;12.38;;;17.90;59.50;;;;;;5021012;28;20042;-67
2020/12/02 08:33:41;;;;;;;;;;;17.80;60.30;;;;;;5024382;28;20083;-68
2020/12/02 08:36:09;;;;;;;21.88;12.02;;;17.80;60.60;;;;;;5022831;28;19917;-68
2020/12/02 08:38:40;;;;;;;19.05;11.43;;;17.70;60.80;;;;;;5024213;28;20160;-68
2020/12/02 08:41:16;;;;;;;18.70;11.23;;;17.70;61.50;;;;;;5021173;28;20156;-67
2020/12/02 08:43:49;;;;;;;22.17;10.80;;;17.60;60.60;;;;;;5013243;28;20057;-68
2020/12/02 08:46:26;;;;;;;17.17;10.55;;;17.60;60.70;;;;;;5023444;28;20042;-69
2020/12/02 08:48:56;;;;;;;18.75;10.93;;;17.60;60.80;;;;;;5004344;28;20060;-70
2020/12/02 08:51:23;;;;;;;16.80;10.45;;;17.60;61.00;;;;;;5007951;28;20033;-69
2020/12/02 08:53:49;;;;;;;21.23;13.82;;;17.60;61.10;;;;;;5023386;28;20044;-69
2020/12/02 08:56:34;;;;;;;20.10;11.43;;;17.60;61.20;;;;;;5022499;28;20035;-69
2020/12/02 09:01:31;;;;;;;;;;;17.60;61.50;;;;;;5080279;23;20049;-70
2020/12/02 09:04:20;;;;;;;16.60;11.05;;;17.60;61.40;;;;;;5053295;28;19905;-70
2020/12/02 09:06:48;;;;;;;15.70;10.85;;;17.60;61.50;;;;;;5048205;28;20024;-69
2020/12/02 09:09:14;;;;;;;18.67;11.23;;;17.60;61.50;;;;;;5051978;28;20021;-69
2020/12/02 09:11:39;;;;;;;15.23;10.32;;;17.60;61.40;;;;;;5051466;28;20079;-68
2020/12/02 09:14:05;;;;;;;16.23;10.90;;;17.60;61.40;;;;;;5052096;28;20119;-68
2020/12/02 09:16:34;;;;;;;15.90;10.73;;;17.60;61.30;;;;;;5053500;28;20033;-69
2020/12/02 09:19:00;;;;;;;17.48;10.43;;;17.60;61.30;;;;;;5052197;28;20124;-69
2020/12/02 09:21:27;;;;;;;17.23;9.75;;;17.60;61.40;;;;;;5032845;28;20044;-69
2020/12/02 09:23:54;;;;;;;16.70;9.68;;;17.60;61.40;;;;;;5033745;28;20021;-69
2020/12/02 09:26:22;;;;;;;15.20;10.40;;;17.60;61.20;;;;;;5033658;28;20033;-69
2020/12/02 09:28:48;;;;;;;13.80;9.75;;;17.60;61.30;;;;;;5033658;28;20025;-69
2020/12/02 09:31:15;;;;;;;16.33;9.82;;;17.60;61.30;;;;;;5033141;28;20429;-69
2020/12/02 09:33:41;;;;;;;15.48;9.98;;;17.60;61.30;;;;;;5033468;28;20049;-69
2020/12/02 09:36:07;;;;;;;15.07;10.27;;;17.60;61.20;;;;;;5033392;28;20057;-69
2020/12/02 09:38:33;;;;;;;15.43;10.40;;;17.60;61.20;;;;;;5048683;28;20056;-69
2020/12/02 09:41:28;;;;;;;15.50;10.02;;;17.50;61.00;;;;;;5051247;28;20481;-68
2020/12/02 09:44:09;;;;;;;13.88;9.50;;;17.50;61.10;;;;;;5051364;28;20029;-70
2020/12/02 09:46:35;;;;;;;14.30;9.30;;;17.50;61.20;;;;;;5049208;28;20009;-69
2020/12/02 09:49:01;;;;;;;13.45;9.05;;;17.60;61.20;;;;;;5038875;28;20036;-70
2020/12/02 09:51:30;;;;;;;16.63;9.70;;;17.50;61.00;;;;;;5046472;28;20034;-69
2020/12/02 09:53:56;;;;;;;13.23;9.25;;;17.50;61.20;;;;;;5056661;28;20082;-69
2020/12/02 09:56:22;;;;;;;14.52;8.90;;;17.50;61.10;;;;;;5043792;28;20549;-68
2020/12/02 09:58:48;;;;;;;14.35;9.63;;;17.50;61.10;;;;;;5038640;28;20120;-69
2020/12/02 10:01:17;;;;;;;11.98;8.45;;;17.50;61.20;;;;;;5048492;28;20639;-69
2020/12/02 10:04:09;;;;;;;12.20;8.88;;;17.50;61.30;;;;;;5031777;28;20437;-68
2020/12/02 10:07:21;;;;;;;15.52;9.98;;;17.50;61.00;;;;;;5047504;28;20045;-68
2020/12/02 10:10:06;;;;;;;25.48;17.10;;;17.70;61.30;;;;;;5026738;28;20033;-68
2020/12/02 10:13:01;;;;;;;19.10;12.60;;;18.10;60.10;;;;;;5037460;28;20564;-67
2020/12/02 10:15:44;;;;;;;21.33;15.55;;;18.40;59.10;;;;;;5046508;28;20064;-68
2020/12/02 10:18:51;;;;;;;26.58;19.73;;;18.40;58.80;;;;;;5045350;28;20017;-68
2020/12/02 10:21:35;;;;;;;29.13;20.45;;;18.30;59.00;;;;;;5030406;28;20032;-70
2020/12/02 10:24:19;;;;;;;28.30;20.08;;;18.10;59.50;;;;;;5032176;28;20027;-70
2020/12/02 10:27:21;;;;;;;28.67;19.90;;;18.00;59.80;;;;;;5032142;28;20483;-69
2020/12/02 10:29:56;;;;;;;28.02;19.45;;;17.90;60.20;;;;;;5031482;28;20025;-68
2020/12/02 10:33:03;;;;;;;27.08;18.55;;;17.80;60.20;;;;;;5049935;28;20207;-69
2020/12/02 10:35:34;;;;;;;25.27;18.83;;;17.70;60.40;;;;;;5043237;28;20037;-69
2020/12/02 10:38:02;;;;;;;22.27;17.17;;;17.70;60.40;;;;;;5031867;28;20033;-69
2020/12/02 10:40:38;;;;;;;24.23;16.77;;;17.60;60.50;;;;;;5040646;28;20029;-69
2020/12/02 10:43:37;;;;;;;22.35;16.05;;;17.50;60.60;;;;;;5051720;28;20055;-69
2020/12/02 10:46:05;;;;;;;21.40;15.07;;;17.50;60.70;;;;;;5049031;28;20502;-69
2020/12/02 10:48:50;;;;;;;21.23;15.23;;;17.50;60.70;;;;;;5051629;28;20268;-70
2020/12/02 10:51:15;;;;;;;21.23;15.20;;;17.40;60.90;;;;;;5050788;28;20440;-69
2020/12/02 10:53:43;;;;;;;21.20;14.68;;;17.40;60.80;;;;;;5032592;28;20033;-70
2020/12/02 10:56:09;;;;;;;19.52;13.48;;;17.40;60.90;;;;;;5031499;28;20112;-69
2020/12/02 10:58:34;;;;;;;18.73;14.32;;;17.40;60.90;;;;;;5031514;28;20122;-69
2020/12/02 11:01:03;;;;;;;18.35;12.35;;;17.30;61.10;;;;;;5029346;28;20036;-69
2020/12/02 11:03:32;;;;;;;16.92;12.15;;;17.30;61.00;;;;;;5030287;28;20579;-69
2020/12/02 11:06:12;;;;;;;16.20;12.77;;;17.30;61.70;;;;;;5030123;28;20382;-69
2020/12/02 11:08:54;;;;;;;17.52;12.52;;;17.30;61.10;;;;;;5030107;28;20116;-69
2020/12/02 11:11:46;;;;;;;17.38;12.02;;;17.20;61.10;;;;;;5046359;28;20025;-70
2020/12/02 11:14:48;;;;;;;15.98;11.05;;;17.20;61.40;;;;;;5051152;28;20028;-69
2020/12/02 11:17:25;;;;;;;14.98;11.13;;;17.20;61.20;;;;;;5051180;28;20394;-70
2020/12/02 11:20:03;;;;;;;14.57;11.20;;;17.20;61.20;;;;;;5050095;28;20052;-68
2020/12/02 11:23:01;;;;;;;15.02;11.15;;;17.10;61.00;;;;;;5050395;28;20021;-70
2020/12/02 11:25:41;;;;;;;13.43;10.75;;;17.10;61.30;;;;;;5049876;28;20088;-69
2020/12/02 11:28:08;;;;;;;15.48;11.27;;;17.10;61.10;;;;;;5050761;28;20115;-69
2020/12/02 11:30:39;;;;;;;14.90;10.27;;;17.10;61.20;;;;;;5030672;28;20494;-68
2020/12/02 11:33:14;;;;;;;13.50;10.43;;;17.10;61.30;;;;;;5029809;28;20048;-69
2020/12/02 11:36:04;;;;;;;14.23;9.52;;;17.00;61.00;;;;;;5029874;28;20022;-69
2020/12/02 11:38:54;;;;;;;13.98;10.30;;;17.00;61.20;;;;;;5031100;28;20030;-70
2020/12/02 11:41:34;;;;;;;14.60;10.35;;;17.00;61.20;;;;;;5028955;28;20075;-69
2020/12/02 11:44:09;;;;;;;13.15;9.60;;;17.00;61.20;;;;;;5029554;28;20017;-69
2020/12/02 11:46:35;;;;;;;13.82;9.95;;;17.00;61.50;;;;;;5030841;28;20494;-68
2020/12/02 11:49:09;;;;;;;14.32;10.20;;;17.00;61.30;;;;;;5030768;28;20098;-69
2020/12/02 11:52:26;;;;;;;13.82;9.00;;;17.00;61.20;;;;;;5028774;28;20394;-69
2020/12/02 11:54:54;;;;;;;13.98;9.68;;;16.90;61.10;;;;;;5029431;28;20112;-68
2020/12/02 11:57:21;;;;;;;12.38;8.95;;;16.90;61.10;;;;;;5030554;28;20024;-70
2020/12/02 11:59:46;;;;;;;12.55;9.43;;;16.90;61.20;;;;;;5040265;28;20025;-71
2020/12/02 12:02:44;;;;;;;12.60;8.98;;;16.90;61.10;;;;;;5069745;28;20029;-69
2020/12/02 12:05:27;;;;;;;13.45;9.25;;;16.80;61.00;;;;;;5068673;28;20097;-69
2020/12/02 12:08:23;;;;;;;13.45;9.88;;;16.80;61.00;;;;;;5069334;28;20128;-69
2020/12/02 12:11:09;;;;;;;12.60;8.95;;;16.80;61.10;;;;;;5069588;28;20024;-69
2020/12/02 12:13:43;;;;;;;12.10;8.73;;;16.80;61.10;;;;;;5068991;28;20113;-69
2020/12/02 12:16:24;;;;;;;13.57;9.65;;;16.90;61.30;;;;;;5070097;28;20103;-67
2020/12/02 12:18:54;;;;;;;;;;;16.70;61.00;;;;;;5070646;28;20082;-69
2020/12/02 12:21:40;;;;;;;12.80;8.82;;;16.80;61.30;;;;;;5069445;28;20361;-69
2020/12/02 12:24:12;;;;;;;11.82;8.30;;;16.70;61.30;;;;;;5070196;28;20032;-68
2020/12/02 12:26:42;;;;;;;13.55;8.65;;;16.70;61.50;;;;;;5068798;28;20021;-69
2020/12/02 12:29:12;;;;;;;11.55;8.55;;;16.70;61.30;;;;;;5060020;28;20025;-70
2020/12/02 12:31:50;;;;;;;12.27;8.50;;;16.70;61.30;;;;;;5051323;28;20047;-69
2020/12/02 12:34:58;;;;;;;13.48;9.27;;;16.70;61.40;;;;;;5052889;28;20036;-67
2020/12/02 12:37:51;;;;;;;12.02;8.38;;;16.70;61.30;;;;;;5053430;28;20073;-70
2020/12/02 12:40:22;;;;;;;13.18;9.27;;;16.70;61.20;;;;;;5052379;28;20033;-69
2020/12/02 12:42:53;;;;;;;13.40;9.15;;;16.70;61.30;;;;;;5052163;28;20028;-68
2020/12/02 12:45:25;;;;;;;12.55;8.75;;;16.70;61.30;;;;;;5052693;28;20414;-69
2020/12/02 12:47:55;;;;;;;11.30;8.30;;;16.60;61.20;;;;;;5044918;28;20045;-68
2020/12/02 12:50:22;;;;;;;173.93;85.85;;;16.60;61.30;;;;;;5037122;28;20155;-69
2020/12/02 12:52:51;;;;;;;256.48;137.13;;;16.60;61.60;;;;;;5034309;28;20028;-67
2020/12/02 12:55:17;;;;;;;198.10;139.65;;;16.70;62.00;;;;;;5039934;28;20036;-68
2020/12/02 12:57:48;;;;;;;135.52;101.20;;;16.70;61.40;;;;;;5040379;28;20754;-67
2020/12/02 13:00:16;;;;;;;81.70;53.27;;;16.60;61.40;;;;;;5032210;28;20026;-67
2020/12/02 13:02:41;;;;;;;932.50;685.92;;;16.60;61.70;;;;;;5051748;28;20267;-67
2020/12/02 13:05:11;;;;;;;545.10;415.55;;;16.70;61.40;;;;;;5053762;28;20029;-67
2020/12/02 13:07:54;;;;;;;266.23;181.75;;;16.70;61.20;;;;;;5052565;28;20028;-68
2020/12/02 13:10:35;;;;;;;186.55;130.43;;;16.70;61.50;;;;;;5053620;28;20032;-66